createdAt,value
2018-09-18T00:00:11.326Z,17.85
2018-09-18T00:02:40.103Z,17.89
2018-09-18T00:05:08.903Z,17.92
2018-09-18T00:07:37.680Z,17.94
2018-09-18T00:10:07.503Z,17.96
2018-09-18T00:12:37.976Z,18.02
2018-09-18T00:15:06.820Z,17.98
2018-09-18T00:17:35.643Z,17.94
2018-09-18T00:20:04.990Z,17.90
2018-09-18T00:22:33.871Z,17.91
2018-09-18T00:25:02.790Z,17.85
2018-09-18T00:27:31.568Z,17.80
2018-09-18T00:30:00.451Z,17.73
2018-09-18T00:32:29.306Z,17.72
2018-09-18T00:34:58.111Z,17.71
2018-09-18T00:37:26.863Z,17.70
2018-09-18T00:39:55.628Z,17.70
2018-09-18T00:42:24.412Z,17.72
2018-09-18T00:44:53.178Z,17.71
2018-09-18T00:47:21.975Z,17.81
2018-09-18T00:49:50.748Z,17.77
2018-09-18T00:52:19.570Z,17.80
2018-09-18T00:54:48.399Z,17.79
2018-09-18T00:57:17.244Z,17.85
2018-09-18T00:59:46.030Z,17.82
2018-09-18T01:02:14.852Z,17.80
2018-09-18T01:04:43.657Z,17.79
2018-09-18T01:07:12.450Z,17.74
2018-09-18T01:09:41.290Z,17.77
2018-09-18T01:12:10.219Z,17.72
2018-09-18T01:14:39.083Z,17.68
2018-09-18T01:17:07.898Z,17.69
2018-09-18T01:19:36.671Z,17.65
2018-09-18T01:22:05.510Z,17.63
2018-09-18T01:24:34.375Z,17.56
2018-09-18T01:27:03.293Z,17.52
2018-09-18T01:29:32.084Z,17.52
2018-09-18T01:32:00.854Z,17.46
2018-09-18T01:34:30.024Z,17.43
2018-09-18T01:36:58.910Z,17.34
2018-09-18T01:39:27.670Z,17.29
2018-09-18T01:41:56.567Z,17.20
2018-09-18T01:44:25.354Z,17.18
2018-09-18T01:46:54.101Z,17.08
2018-09-18T01:49:22.945Z,16.99
2018-09-18T01:51:51.920Z,16.98
2018-09-18T01:54:20.792Z,16.96
2018-09-18T01:56:49.660Z,16.97
2018-09-18T01:59:18.610Z,16.95
2018-09-18T02:01:47.406Z,16.91
2018-09-18T02:04:16.259Z,16.90
2018-09-18T02:06:45.030Z,16.87
2018-09-18T02:09:13.870Z,16.87
2018-09-18T02:11:42.764Z,16.92
2018-09-18T02:14:13.212Z,16.87
2018-09-18T02:16:42.689Z,16.83
2018-09-18T02:19:11.518Z,16.78
2018-09-18T02:21:41.373Z,16.78
2018-09-18T02:24:10.203Z,16.81
2018-09-18T02:26:39.363Z,16.77
2018-09-18T02:29:08.175Z,16.74
2018-09-18T02:31:37.069Z,16.77
2018-09-18T02:34:06.225Z,16.77
2018-09-18T02:36:34.997Z,16.85
2018-09-18T02:39:05.175Z,16.87
2018-09-18T02:41:33.986Z,16.88
2018-09-18T02:44:02.787Z,16.92
2018-09-18T02:46:31.745Z,16.93
2018-09-18T02:49:00.516Z,16.93
2018-09-18T02:51:29.314Z,16.99
2018-09-18T02:53:58.317Z,16.99
2018-09-18T02:56:27.098Z,16.95
2018-09-18T02:58:55.966Z,16.92
2018-09-18T03:01:24.782Z,16.93
2018-09-18T03:03:53.589Z,16.94
2018-09-18T03:06:22.376Z,16.95
2018-09-18T03:08:51.238Z,16.91
2018-09-18T03:11:20.059Z,16.89
2018-09-18T03:13:48.994Z,16.85
2018-09-18T03:16:17.757Z,16.86
2018-09-18T03:18:46.508Z,16.86
2018-09-18T03:21:15.341Z,16.82
2018-09-18T03:23:44.123Z,16.81
2018-09-18T03:26:12.952Z,16.81
2018-09-18T03:28:41.751Z,16.82
2018-09-18T03:31:10.541Z,16.81
2018-09-18T03:33:39.351Z,16.77
2018-09-18T03:36:08.310Z,16.74
2018-09-18T03:38:37.083Z,16.74
2018-09-18T03:41:05.915Z,16.72
2018-09-18T03:43:34.749Z,16.71
2018-09-18T03:46:03.596Z,16.65
2018-09-18T03:48:32.432Z,16.57
2018-09-18T03:51:01.195Z,16.53
2018-09-18T03:53:29.960Z,16.54
2018-09-18T03:55:58.756Z,16.47
2018-09-18T03:58:27.562Z,16.49
2018-09-18T04:00:56.439Z,16.50
2018-09-18T04:03:25.202Z,16.50
2018-09-18T04:05:54.027Z,16.45
2018-09-18T04:08:22.775Z,16.41
2018-09-18T04:10:51.566Z,16.41
2018-09-18T04:13:20.354Z,16.42
2018-09-18T04:15:49.192Z,16.43
2018-09-18T04:18:20.583Z,16.38
2018-09-18T04:20:49.337Z,16.39
2018-09-18T04:23:18.241Z,16.41
2018-09-18T04:25:47.022Z,16.45
2018-09-18T04:28:15.758Z,16.42
2018-09-18T04:30:44.528Z,16.47
2018-09-18T04:33:13.281Z,16.48
2018-09-18T04:35:42.080Z,16.47
2018-09-18T04:38:10.942Z,16.50
2018-09-18T04:40:39.738Z,16.57
2018-09-18T04:43:08.612Z,16.63
2018-09-18T04:45:37.375Z,16.70
2018-09-18T04:48:06.245Z,16.74
2018-09-18T04:50:35.025Z,16.79
2018-09-18T04:53:03.867Z,16.86
2018-09-18T04:55:32.822Z,16.94
2018-09-18T04:58:01.661Z,16.99
2018-09-18T05:00:30.510Z,17.06
2018-09-18T05:02:59.426Z,17.15
2018-09-18T05:05:28.199Z,17.29
2018-09-18T05:07:56.978Z,17.35
2018-09-18T05:10:25.809Z,17.43
2018-09-18T05:12:54.576Z,17.40
2018-09-18T05:15:23.370Z,17.42
2018-09-18T05:17:52.140Z,17.48
2018-09-18T05:20:20.976Z,17.50
2018-09-18T05:22:49.752Z,17.51
2018-09-18T05:25:18.567Z,17.59
2018-09-18T05:27:47.343Z,17.64
2018-09-18T05:30:16.143Z,17.68
2018-09-18T05:32:44.958Z,17.77
2018-09-18T05:35:13.798Z,17.80
2018-09-18T05:37:42.594Z,17.78
2018-09-18T05:40:11.362Z,17.77
2018-09-18T05:42:40.462Z,17.71
2018-09-18T05:45:09.384Z,17.83
2018-09-18T05:47:38.172Z,17.98
2018-09-18T05:50:06.985Z,17.94
2018-09-18T05:52:35.738Z,18.05
2018-09-18T05:55:04.624Z,18.21
2018-09-18T05:57:33.390Z,18.33
2018-09-18T06:00:02.199Z,18.49
2018-09-18T06:02:31.000Z,18.60
2018-09-18T06:04:59.788Z,18.70
2018-09-18T06:07:28.560Z,18.85
2018-09-18T06:09:57.376Z,18.83
2018-09-18T06:12:26.169Z,18.87
2018-09-18T06:14:55.139Z,18.82
2018-09-18T06:17:23.936Z,18.86
2018-09-18T06:19:53.018Z,18.84
2018-09-18T06:22:21.790Z,18.79
2018-09-18T06:24:50.550Z,18.65
2018-09-18T06:27:19.335Z,18.72
2018-09-18T06:29:48.187Z,18.74
2018-09-18T06:32:16.975Z,18.79
2018-09-18T06:34:45.745Z,18.89
2018-09-18T06:37:14.485Z,18.93
2018-09-18T06:39:43.293Z,18.93
2018-09-18T06:42:12.087Z,18.89
2018-09-18T06:44:41.051Z,18.77
2018-09-18T06:47:09.906Z,18.80
2018-09-18T06:49:38.728Z,18.85
2018-09-18T06:52:07.541Z,18.93
2018-09-18T06:54:36.449Z,19.00
2018-09-18T06:57:06.631Z,18.98
2018-09-18T06:59:35.724Z,19.00
2018-09-18T07:02:04.514Z,19.05
2018-09-18T07:04:33.304Z,19.08
2018-09-18T07:07:02.102Z,19.09
2018-09-18T07:09:30.915Z,19.13
2018-09-18T07:11:59.707Z,19.01
2018-09-18T07:14:28.481Z,18.95
2018-09-18T07:16:57.577Z,19.00
2018-09-18T07:19:26.424Z,19.14
2018-09-18T07:21:55.307Z,19.10
2018-09-18T07:24:24.075Z,19.20
2018-09-18T07:26:52.843Z,19.31
2018-09-18T07:29:21.718Z,19.41
2018-09-18T07:31:50.489Z,19.43
2018-09-18T07:34:19.306Z,19.44
2018-09-18T07:36:48.252Z,19.52
2018-09-18T07:39:17.044Z,19.57
2018-09-18T07:41:45.899Z,19.69
2018-09-18T07:44:14.679Z,19.78
2018-09-18T07:46:43.511Z,19.82
2018-09-18T07:49:12.291Z,19.83
2018-09-18T07:51:41.051Z,19.93
2018-09-18T07:54:09.916Z,20.08
2018-09-18T07:56:38.701Z,20.14
2018-09-18T07:59:07.499Z,19.97
2018-09-18T08:01:36.344Z,20.04
2018-09-18T08:04:05.172Z,19.96
2018-09-18T08:06:34.020Z,20.07
2018-09-18T08:09:02.850Z,20.19
2018-09-18T08:11:31.651Z,20.31
2018-09-18T08:14:00.457Z,20.41
2018-09-18T08:16:29.301Z,20.51
2018-09-18T08:18:58.305Z,20.67
2018-09-18T08:21:27.183Z,20.73
2018-09-18T08:23:56.382Z,20.72
2018-09-18T08:26:25.165Z,20.71
2018-09-18T08:28:54.565Z,20.79
2018-09-18T08:31:23.447Z,20.91
2018-09-18T08:33:52.355Z,21.00
2018-09-18T08:36:21.157Z,21.07
2018-09-18T08:38:49.983Z,21.17
2018-09-18T08:41:18.907Z,21.22
2018-09-18T08:43:47.698Z,21.31
2018-09-18T08:46:16.527Z,21.41
2018-09-18T08:48:50.639Z,21.44
2018-09-18T08:51:19.597Z,21.43
2018-09-18T08:53:48.479Z,21.41
2018-09-18T08:56:17.424Z,21.45
2018-09-18T08:58:46.264Z,21.54
2018-09-18T09:01:15.077Z,21.57
2018-09-18T09:03:44.109Z,21.65
2018-09-18T09:06:13.097Z,21.64
2018-09-18T09:08:42.150Z,21.70
2018-09-18T09:11:11.053Z,21.79
2018-09-18T09:13:39.882Z,21.83
2018-09-18T09:16:08.677Z,21.98
2018-09-18T09:18:37.571Z,22.12
2018-09-18T09:21:06.678Z,22.22
2018-09-18T09:23:35.576Z,22.23
2018-09-18T09:26:04.412Z,22.19
2018-09-18T09:28:33.217Z,22.25
2018-09-18T09:31:02.297Z,22.23
2018-09-18T09:33:31.082Z,22.36
2018-09-18T09:36:00.888Z,22.39
2018-09-18T09:38:29.666Z,22.42
2018-09-18T09:40:58.447Z,22.53
2018-09-18T09:43:27.339Z,22.61
2018-09-18T09:45:56.075Z,22.70
2018-09-18T09:48:24.832Z,22.82
2018-09-18T09:50:53.625Z,22.97
2018-09-18T09:53:22.419Z,22.97
2018-09-18T09:55:51.402Z,22.95
2018-09-18T09:58:20.280Z,22.96
2018-09-18T10:00:54.390Z,23.06
2018-09-18T10:03:23.195Z,23.27
2018-09-18T10:05:51.971Z,23.34
2018-09-18T10:08:20.771Z,23.31
2018-09-18T10:10:49.670Z,23.32
2018-09-18T10:13:18.540Z,23.32
2018-09-18T10:15:47.321Z,23.36
2018-09-18T10:18:16.159Z,23.38
2018-09-18T10:20:45.075Z,23.32
2018-09-18T10:23:13.927Z,23.42
2018-09-18T10:25:42.748Z,23.48
2018-09-18T10:28:11.546Z,23.49
2018-09-18T10:30:40.422Z,23.58
2018-09-18T10:33:09.366Z,23.79
2018-09-18T10:35:38.304Z,23.90
2018-09-18T10:38:07.149Z,23.98
2018-09-18T10:40:36.802Z,24.01
2018-09-18T10:43:05.828Z,24.08
2018-09-18T10:45:34.588Z,24.07
2018-09-18T10:48:04.639Z,24.08
2018-09-18T10:50:33.712Z,24.25
2018-09-18T10:53:02.463Z,24.32
2018-09-18T10:55:32.036Z,24.23
2018-09-18T10:58:00.781Z,24.23
2018-09-18T11:00:29.625Z,24.14
2018-09-18T11:02:58.518Z,24.18
2018-09-18T11:05:28.792Z,24.19
2018-09-18T11:07:57.674Z,24.13
2018-09-18T11:10:26.610Z,24.12
2018-09-18T11:12:55.408Z,24.25
2018-09-18T11:15:24.264Z,24.28
2018-09-18T11:17:53.207Z,24.40
2018-09-18T11:20:22.012Z,24.47
2018-09-18T11:22:50.989Z,24.64
2018-09-18T11:25:19.989Z,24.68
2018-09-18T11:27:48.943Z,24.58
2018-09-18T11:30:19.145Z,24.62
2018-09-18T11:32:48.038Z,24.72
2018-09-18T11:35:17.036Z,24.86
2018-09-18T11:37:45.826Z,24.97
2018-09-18T11:40:14.617Z,25.04
2018-09-18T11:42:43.490Z,25.03
2018-09-18T11:45:12.288Z,25.13
2018-09-18T11:47:41.130Z,25.18
2018-09-18T11:50:10.114Z,25.22
2018-09-18T11:52:38.952Z,25.12
2018-09-18T11:55:07.950Z,25.04
2018-09-18T11:57:36.730Z,24.99
2018-09-18T12:00:09.108Z,24.95
2018-09-18T12:02:38.346Z,24.96
2018-09-18T12:05:07.924Z,25.00
2018-09-18T12:07:36.856Z,24.96
2018-09-18T12:10:05.765Z,24.98
2018-09-18T12:12:34.578Z,25.05
2018-09-18T12:15:03.418Z,25.17
2018-09-18T12:17:35.242Z,25.34
2018-09-18T12:20:04.137Z,25.56
2018-09-18T12:22:33.082Z,25.63
2018-09-18T12:25:01.923Z,25.82
2018-09-18T12:27:30.793Z,25.92
2018-09-18T12:29:59.621Z,25.96
2018-09-18T12:32:28.447Z,26.04
2018-09-18T12:34:57.237Z,26.12
2018-09-18T12:37:26.039Z,26.08
2018-09-18T12:39:54.846Z,26.00
2018-09-18T12:42:23.756Z,25.89
2018-09-18T12:44:52.751Z,25.89
2018-09-18T12:47:21.563Z,25.93
2018-09-18T12:49:50.514Z,25.85
2018-09-18T12:52:19.374Z,25.79
2018-09-18T12:54:48.198Z,25.70
2018-09-18T12:57:17.172Z,25.51
2018-09-18T12:59:46.065Z,25.48
2018-09-18T13:02:15.021Z,25.47
2018-09-18T13:04:44.111Z,25.43
2018-09-18T13:07:12.933Z,25.35
2018-09-18T13:09:41.808Z,25.38
2018-09-18T13:12:10.562Z,25.42
2018-09-18T13:14:39.289Z,25.41
2018-09-18T13:17:08.298Z,25.45
2018-09-18T13:19:37.385Z,25.43
2018-09-18T13:22:06.360Z,25.51
2018-09-18T13:24:35.200Z,25.53
2018-09-18T13:27:04.123Z,25.51
2018-09-18T13:29:32.958Z,25.67
2018-09-18T13:32:01.778Z,25.74
2018-09-18T13:34:30.568Z,25.50
2018-09-18T13:36:59.363Z,25.49
2018-09-18T13:39:28.174Z,25.44
2018-09-18T13:41:57.004Z,25.52
2018-09-18T13:44:25.876Z,25.48
2018-09-18T13:46:54.688Z,25.44
2018-09-18T13:49:23.546Z,25.42
2018-09-18T13:51:52.527Z,25.37
2018-09-18T13:54:21.565Z,25.43
2018-09-18T13:56:50.496Z,25.45
2018-09-18T13:59:19.431Z,25.58
2018-09-18T14:01:48.529Z,25.74
2018-09-18T14:04:17.691Z,25.84
2018-09-18T14:06:46.691Z,25.83
2018-09-18T14:09:15.553Z,25.91
2018-09-18T14:11:44.504Z,25.89
2018-09-18T14:14:13.435Z,25.79
2018-09-18T14:16:42.429Z,25.79
2018-09-18T14:19:11.279Z,25.76
2018-09-18T14:21:40.148Z,25.75
2018-09-18T14:24:08.983Z,25.70
2018-09-18T14:26:37.925Z,25.56
2018-09-18T14:29:06.836Z,25.57
2018-09-18T14:31:35.726Z,25.63
2018-09-18T14:34:04.570Z,25.73
2018-09-18T14:36:33.408Z,25.70
2018-09-18T14:39:02.664Z,25.69
2018-09-18T14:41:31.549Z,25.73
2018-09-18T14:44:00.354Z,25.69
2018-09-18T14:46:29.119Z,25.59
2018-09-18T14:48:57.891Z,25.58
2018-09-18T14:51:26.722Z,25.67
2018-09-18T14:53:55.542Z,25.76
2018-09-18T14:56:24.339Z,25.73
2018-09-18T14:58:53.181Z,25.82
2018-09-18T15:01:21.934Z,25.88
2018-09-18T15:03:50.724Z,25.85
2018-09-18T15:06:19.487Z,25.89
2018-09-18T15:08:48.343Z,25.78
2018-09-18T15:11:17.280Z,25.74
2018-09-18T15:13:46.099Z,25.73
2018-09-18T15:16:14.868Z,25.62
2018-09-18T15:18:43.743Z,25.43
2018-09-18T15:21:12.563Z,25.36
2018-09-18T15:23:41.518Z,25.29
2018-09-18T15:26:10.315Z,25.19
2018-09-18T15:28:39.254Z,25.09
2018-09-18T15:31:08.078Z,25.06
2018-09-18T15:33:37.055Z,25.00
2018-09-18T15:36:05.999Z,24.97
2018-09-18T15:38:34.850Z,24.84
2018-09-18T15:41:03.651Z,24.78
2018-09-18T15:43:33.279Z,24.75
2018-09-18T15:46:02.246Z,24.66
2018-09-18T15:48:31.498Z,24.64
2018-09-18T15:51:00.495Z,24.50
2018-09-18T15:53:29.286Z,24.52
2018-09-18T15:55:58.259Z,24.47
2018-09-18T15:58:27.114Z,24.45
2018-09-18T16:00:55.956Z,24.45
2018-09-18T16:03:24.835Z,24.38
2018-09-18T16:05:53.597Z,24.32
2018-09-18T16:08:22.427Z,24.15
2018-09-18T16:10:51.176Z,24.18
2018-09-18T16:13:20.023Z,24.09
2018-09-18T16:15:48.893Z,24.02
2018-09-18T16:18:17.691Z,23.99
2018-09-18T16:20:46.479Z,23.93
2018-09-18T16:23:15.333Z,23.84
2018-09-18T16:25:44.225Z,23.77
2018-09-18T16:28:13.033Z,23.72
2018-09-18T16:30:41.970Z,23.65
2018-09-18T16:33:10.966Z,23.57
2018-09-18T16:35:39.837Z,23.49
2018-09-18T16:38:08.770Z,23.43
2018-09-18T16:40:37.659Z,23.38
2018-09-18T16:43:06.678Z,23.36
2018-09-18T16:45:35.531Z,23.30
2018-09-18T16:48:04.453Z,23.16
2018-09-18T16:50:33.255Z,23.10
2018-09-18T16:53:02.257Z,23.02
2018-09-18T16:55:31.210Z,22.96
2018-09-18T16:58:00.025Z,22.90
2018-09-18T17:00:28.859Z,22.79
2018-09-18T17:02:58.139Z,22.69
2018-09-18T17:05:27.055Z,22.62
2018-09-18T17:07:56.659Z,22.56
2018-09-18T17:10:25.537Z,22.48
2018-09-18T17:12:57.237Z,22.44
2018-09-18T17:15:26.131Z,22.43
2018-09-18T17:17:54.900Z,22.34
2018-09-18T17:20:23.734Z,22.26
2018-09-18T17:22:52.515Z,22.18
2018-09-18T17:25:21.398Z,22.12
2018-09-18T17:27:50.299Z,22.09
2018-09-18T17:30:19.182Z,22.09
2018-09-18T17:32:48.131Z,22.05
2018-09-18T17:35:16.901Z,21.99
2018-09-18T17:37:45.669Z,21.90
2018-09-18T17:40:14.463Z,21.87
2018-09-18T17:42:44.360Z,21.84
2018-09-18T17:45:13.118Z,21.79
2018-09-18T17:47:41.992Z,21.77
2018-09-18T17:50:11.022Z,21.75
2018-09-18T17:52:40.444Z,21.76
2018-09-18T17:55:09.265Z,21.71
2018-09-18T17:57:38.072Z,21.64
2018-09-18T18:00:07.553Z,21.56
2018-09-18T18:02:36.310Z,21.45
2018-09-18T18:05:05.153Z,21.44
2018-09-18T18:07:33.902Z,21.43
2018-09-18T18:10:02.756Z,21.39
2018-09-18T18:12:31.722Z,21.31
2018-09-18T18:15:00.508Z,21.23
2018-09-18T18:17:29.313Z,21.14
2018-09-18T18:19:58.334Z,21.14
2018-09-18T18:22:27.208Z,21.12
2018-09-18T18:24:56.012Z,21.11
2018-09-18T18:27:24.826Z,21.10
2018-09-18T18:29:53.614Z,21.02
2018-09-18T18:32:22.431Z,20.97
2018-09-18T18:34:51.219Z,20.92
2018-09-18T18:37:20.049Z,20.88
2018-09-18T18:39:48.796Z,20.82
2018-09-18T18:42:17.603Z,20.80
2018-09-18T18:44:46.799Z,20.75
2018-09-18T18:47:15.594Z,20.73
2018-09-18T18:49:44.405Z,20.72
2018-09-18T18:52:13.219Z,20.75
2018-09-18T18:54:42.067Z,20.71
2018-09-18T18:57:10.973Z,20.67
2018-09-18T18:59:39.722Z,20.62
2018-09-18T19:02:08.500Z,20.54
2018-09-18T19:04:37.373Z,20.47
2018-09-18T19:07:06.156Z,20.45
2018-09-18T19:09:35.055Z,20.32
2018-09-18T19:12:03.828Z,20.31
2018-09-18T19:14:32.647Z,20.25
2018-09-18T19:17:01.395Z,20.21
2018-09-18T19:19:30.200Z,20.08
2018-09-18T19:21:58.979Z,19.94
2018-09-18T19:24:27.785Z,19.88
2018-09-18T19:26:56.646Z,19.86
2018-09-18T19:29:25.438Z,19.81
2018-09-18T19:31:54.422Z,19.78
2018-09-18T19:34:23.221Z,19.73
2018-09-18T19:36:52.168Z,19.63
2018-09-18T19:39:21.125Z,19.61
2018-09-18T19:41:50.027Z,19.56
2018-09-18T19:44:18.832Z,19.53
2018-09-18T19:46:47.605Z,19.52
2018-09-18T19:49:16.467Z,19.48
2018-09-18T19:51:45.210Z,19.45
2018-09-18T19:54:13.993Z,19.43
2018-09-18T19:56:46.066Z,19.38
2018-09-18T19:59:14.952Z,19.33
2018-09-18T20:01:43.960Z,19.29
2018-09-18T20:04:12.952Z,19.22
2018-09-18T20:06:41.697Z,19.23
2018-09-18T20:09:11.626Z,19.21
2018-09-18T20:11:40.598Z,19.14
2018-09-18T20:14:09.344Z,19.14
2018-09-18T20:16:38.123Z,19.14
2018-09-18T20:19:06.976Z,19.07
2018-09-18T20:21:35.774Z,19.05
2018-09-18T20:24:04.534Z,18.97
2018-09-18T20:26:33.324Z,18.98
2018-09-18T20:29:02.119Z,18.90
2018-09-18T20:31:30.943Z,18.93
2018-09-18T20:33:59.725Z,18.92
2018-09-18T20:36:28.726Z,18.93
2018-09-18T20:38:57.750Z,18.87
2018-09-18T20:41:26.537Z,18.82
2018-09-18T20:43:55.423Z,18.80
2018-09-18T20:46:24.555Z,18.79
2018-09-18T20:48:53.575Z,18.74
2018-09-18T20:51:22.379Z,18.69
2018-09-18T20:53:51.143Z,18.70
2018-09-18T20:56:19.895Z,18.67
2018-09-18T20:58:48.721Z,18.63
2018-09-18T21:01:17.550Z,18.64
2018-09-18T21:03:46.313Z,18.66
2018-09-18T21:06:15.150Z,18.63
2018-09-18T21:08:43.926Z,18.64
2018-09-18T21:11:13.255Z,18.61
2018-09-18T21:13:42.108Z,18.61
2018-09-18T21:16:10.899Z,18.60
2018-09-18T21:18:39.754Z,18.61
2018-09-18T21:21:08.542Z,18.60
2018-09-18T21:23:37.370Z,18.58
2018-09-18T21:26:08.375Z,18.58
2018-09-18T21:28:37.207Z,18.56
2018-09-18T21:31:06.356Z,18.54
2018-09-18T21:33:35.185Z,18.50
2018-09-18T21:36:03.982Z,18.47
2018-09-18T21:38:33.209Z,18.44
2018-09-18T21:41:01.993Z,18.39
2018-09-18T21:43:31.410Z,18.32
2018-09-18T21:46:00.148Z,18.28
2018-09-18T21:48:28.956Z,18.22
2018-09-18T21:50:57.726Z,18.18
2018-09-18T21:53:26.529Z,18.13
2018-09-18T21:55:55.302Z,18.08
2018-09-18T21:58:24.554Z,18.02
2018-09-18T22:00:53.391Z,18.08
2018-09-18T22:03:22.152Z,18.06
2018-09-18T22:05:50.882Z,17.99
2018-09-18T22:08:19.680Z,17.93
2018-09-18T22:10:48.467Z,17.93
2018-09-18T22:13:17.228Z,17.84
2018-09-18T22:15:45.982Z,17.85
2018-09-18T22:18:14.756Z,17.82
2018-09-18T22:20:43.587Z,17.77
2018-09-18T22:23:12.347Z,17.79
2018-09-18T22:25:41.100Z,17.78
2018-09-18T22:28:09.870Z,17.77
2018-09-18T22:30:38.633Z,17.70
2018-09-18T22:33:07.406Z,17.72
2018-09-18T22:35:36.156Z,17.75
2018-09-18T22:38:04.945Z,17.77
2018-09-18T22:40:33.694Z,17.74
2018-09-18T22:43:02.497Z,17.61
2018-09-18T22:45:31.407Z,17.61
2018-09-18T22:48:00.172Z,17.56
2018-09-18T22:50:28.952Z,17.50
2018-09-18T22:52:57.717Z,17.48
2018-09-18T22:55:26.489Z,17.49
2018-09-18T22:57:55.272Z,17.50
2018-09-18T23:00:24.042Z,17.47
2018-09-18T23:02:52.806Z,17.51
2018-09-18T23:05:21.539Z,17.49
2018-09-18T23:07:50.333Z,17.49
2018-09-18T23:10:19.084Z,17.46
2018-09-18T23:12:47.873Z,17.47
2018-09-18T23:15:16.655Z,17.44
2018-09-18T23:17:45.461Z,17.47
2018-09-18T23:20:14.308Z,17.43
2018-09-18T23:22:43.156Z,17.39
2018-09-18T23:25:11.986Z,17.34
2018-09-18T23:27:40.718Z,17.33
2018-09-18T23:30:09.742Z,17.30
2018-09-18T23:32:38.490Z,17.29
2018-09-18T23:35:07.296Z,17.22
2018-09-18T23:37:36.087Z,17.14
2018-09-18T23:40:05.303Z,16.99
2018-09-18T23:42:34.127Z,16.97
2018-09-18T23:45:02.994Z,16.94
2018-09-18T23:47:31.745Z,16.88
2018-09-18T23:50:00.518Z,16.85
2018-09-18T23:52:29.302Z,16.82
2018-09-18T23:54:58.124Z,16.77
2018-09-18T23:57:26.903Z,16.76
2018-09-18T23:59:55.667Z,16.72
